createdAt,value
2018-03-11T00:01:35.637Z,8.80
2018-03-11T00:04:03.593Z,8.80
2018-03-11T00:06:31.134Z,8.80
2018-03-11T00:08:59.450Z,8.80
2018-03-11T00:11:26.976Z,8.80
2018-03-11T00:13:55.278Z,8.80
2018-03-11T00:16:22.830Z,8.80
2018-03-11T00:18:51.151Z,8.80
2018-03-11T00:21:18.725Z,8.80
2018-03-11T00:23:46.256Z,8.80
2018-03-11T00:26:13.794Z,8.80
2018-03-11T00:28:41.420Z,8.90
2018-03-11T00:31:08.960Z,8.90
2018-03-11T00:33:36.503Z,8.90
2018-03-11T00:36:04.807Z,8.90
2018-03-11T00:38:32.422Z,8.90
2018-03-11T00:40:59.955Z,8.90
2018-03-11T00:43:27.491Z,8.90
2018-03-11T00:45:55.822Z,8.90
2018-03-11T00:48:23.372Z,8.90
2018-03-11T00:50:50.906Z,9.00
2018-03-11T00:53:19.205Z,8.90
2018-03-11T00:55:46.744Z,8.90
2018-03-11T00:58:14.585Z,8.80
2018-03-11T01:00:42.114Z,8.80
2018-03-11T01:03:09.672Z,8.80
2018-03-11T01:05:37.234Z,8.80
2018-03-11T01:08:04.786Z,8.80
2018-03-11T01:10:32.349Z,8.80
2018-03-11T01:13:00.652Z,8.80
2018-03-11T01:15:28.224Z,8.90
2018-03-11T01:17:55.776Z,8.90
2018-03-11T01:20:23.324Z,8.90
2018-03-11T01:22:51.634Z,8.90
2018-03-11T01:25:19.619Z,8.90
2018-03-11T01:27:47.169Z,8.80
2018-03-11T01:30:14.716Z,8.90
2018-03-11T01:32:43.030Z,8.90
2018-03-11T01:35:10.587Z,8.90
2018-03-11T01:37:38.133Z,9.00
2018-03-11T01:40:06.447Z,8.90
2018-03-11T01:42:34.002Z,8.90
2018-03-11T01:45:01.529Z,9.00
2018-03-11T01:47:29.867Z,9.00
2018-03-11T01:49:57.405Z,9.00
2018-03-11T01:52:24.954Z,9.00
2018-03-11T01:54:53.260Z,9.00
2018-03-11T01:57:20.799Z,9.10
2018-03-11T01:59:49.095Z,9.10
2018-03-11T02:02:16.636Z,9.10
2018-03-11T02:04:44.179Z,9.10
2018-03-11T02:07:11.724Z,9.20
2018-03-11T02:09:39.374Z,9.20
2018-03-11T02:12:06.931Z,9.20
2018-03-11T02:14:34.467Z,9.20
2018-03-11T02:17:02.795Z,9.20
2018-03-11T02:19:30.333Z,9.20
2018-03-11T02:21:57.951Z,9.20
2018-03-11T02:24:25.500Z,9.20
2018-03-11T02:26:53.092Z,9.20
2018-03-11T02:29:20.690Z,9.20
2018-03-11T02:31:49.012Z,9.10
2018-03-11T02:34:16.543Z,9.10
2018-03-11T02:36:44.860Z,9.10
2018-03-11T02:39:12.423Z,9.00
2018-03-11T02:41:39.976Z,9.00
2018-03-11T02:44:07.505Z,9.00
2018-03-11T02:46:35.821Z,8.90
2018-03-11T02:49:03.355Z,8.90
2018-03-11T02:51:31.667Z,8.90
2018-03-11T02:53:59.184Z,8.90
2018-03-11T02:56:26.712Z,8.90
2018-03-11T02:58:54.244Z,8.90
2018-03-11T03:01:22.544Z,9.00
2018-03-11T03:03:50.045Z,9.00
2018-03-11T03:06:17.597Z,9.00
2018-03-11T03:08:45.130Z,9.00
2018-03-11T03:11:12.796Z,9.00
2018-03-11T03:13:40.340Z,9.00
2018-03-11T03:16:07.888Z,9.00
2018-03-11T03:18:35.518Z,9.00
2018-03-11T03:21:03.079Z,9.10
2018-03-11T03:23:30.599Z,9.10
2018-03-11T03:25:58.137Z,9.10
2018-03-11T03:28:25.677Z,9.10
2018-03-11T03:30:53.280Z,9.10
2018-03-11T03:33:20.773Z,9.10
2018-03-11T03:35:49.091Z,9.10
2018-03-11T03:38:16.677Z,9.10
2018-03-11T03:40:44.227Z,9.20
2018-03-11T03:43:11.768Z,9.20
2018-03-11T03:45:39.343Z,9.10
2018-03-11T03:48:06.880Z,9.10
2018-03-11T03:50:35.181Z,9.10
2018-03-11T03:53:02.720Z,9.10
2018-03-11T03:55:31.186Z,9.10
2018-03-11T03:57:58.728Z,9.10
2018-03-11T04:00:26.266Z,9.00
2018-03-11T04:02:54.042Z,9.00
2018-03-11T04:05:21.600Z,9.00
2018-03-11T04:07:49.139Z,9.00
2018-03-11T04:10:17.448Z,9.00
2018-03-11T04:12:45.007Z,9.00
2018-03-11T04:15:12.537Z,9.00
2018-03-11T04:17:40.077Z,9.00
2018-03-11T04:20:07.678Z,9.00
2018-03-11T04:22:35.407Z,9.00
2018-03-11T04:25:02.962Z,9.00
2018-03-11T04:27:30.520Z,9.00
2018-03-11T04:29:58.066Z,9.00
2018-03-11T04:32:26.362Z,9.00
2018-03-11T04:34:53.892Z,9.00
2018-03-11T04:37:21.439Z,9.00
2018-03-11T04:39:48.988Z,9.00
2018-03-11T04:42:16.560Z,9.00
2018-03-11T04:44:44.099Z,9.10
2018-03-11T04:47:11.798Z,9.00
2018-03-11T04:49:39.341Z,9.00
2018-03-11T04:52:06.895Z,9.00
2018-03-11T04:54:34.428Z,9.00
2018-03-11T04:57:02.741Z,9.10
2018-03-11T04:59:30.298Z,9.00
2018-03-11T05:01:57.824Z,9.10
2018-03-11T05:04:25.375Z,9.10
2018-03-11T05:06:52.913Z,9.10
2018-03-11T05:09:20.491Z,9.10
2018-03-11T05:11:47.992Z,9.10
2018-03-11T05:14:15.543Z,9.20
2018-03-11T05:16:43.103Z,9.20
2018-03-11T05:19:10.646Z,9.20
2018-03-11T05:21:38.170Z,9.20
2018-03-11T05:24:06.478Z,9.20
2018-03-11T05:26:34.016Z,9.20
2018-03-11T05:29:02.318Z,9.30
2018-03-11T05:31:29.855Z,9.30
2018-03-11T05:33:58.154Z,9.30
2018-03-11T05:36:25.688Z,9.30
2018-03-11T05:38:53.223Z,9.30
2018-03-11T05:41:20.766Z,9.30
2018-03-11T05:43:48.293Z,9.30
2018-03-11T05:46:16.614Z,9.30
2018-03-11T05:48:44.149Z,9.30
2018-03-11T05:51:12.459Z,9.30
2018-03-11T05:53:39.985Z,9.30
2018-03-11T05:56:07.506Z,9.40
2018-03-11T05:58:35.039Z,9.40
2018-03-11T06:01:02.647Z,9.40
2018-03-11T06:03:30.187Z,9.40
2018-03-11T06:05:57.718Z,9.40
2018-03-11T06:08:26.028Z,9.40
2018-03-11T06:10:53.543Z,9.40
2018-03-11T06:13:21.084Z,9.40
2018-03-11T06:15:48.629Z,9.40
2018-03-11T06:18:16.167Z,9.40
2018-03-11T06:20:44.474Z,9.40
2018-03-11T06:23:12.021Z,9.30
2018-03-11T06:25:39.561Z,9.30
2018-03-11T06:28:07.108Z,9.30
2018-03-11T06:30:34.645Z,9.30
2018-03-11T06:33:02.210Z,9.30
2018-03-11T06:35:29.738Z,9.40
2018-03-11T06:37:58.044Z,9.40
2018-03-11T06:40:25.578Z,9.40
2018-03-11T06:42:53.871Z,9.40
2018-03-11T06:45:22.178Z,9.40
2018-03-11T06:47:49.710Z,9.40
2018-03-11T06:50:18.024Z,9.40
2018-03-11T06:52:45.571Z,9.40
2018-03-11T06:55:13.946Z,9.50
2018-03-11T06:57:42.246Z,9.50
2018-03-11T07:00:09.794Z,9.50
2018-03-11T07:02:38.096Z,9.50
2018-03-11T07:05:05.640Z,9.50
2018-03-11T07:07:33.959Z,9.50
2018-03-11T07:10:01.499Z,9.60
2018-03-11T07:12:29.872Z,9.70
2018-03-11T07:14:58.187Z,9.70
2018-03-11T07:17:25.736Z,9.70
2018-03-11T07:19:53.294Z,9.70
2018-03-11T07:22:21.602Z,9.80
2018-03-11T07:24:49.125Z,9.80
2018-03-11T07:27:17.430Z,9.80
2018-03-11T07:29:45.024Z,9.80
2018-03-11T07:32:12.580Z,9.80
2018-03-11T07:34:40.122Z,9.90
2018-03-11T07:37:08.446Z,10.00
2018-03-11T07:39:35.995Z,10.00
2018-03-11T07:42:03.531Z,10.00
2018-03-11T07:44:31.845Z,10.20
2018-03-11T07:49:27.070Z,10.20
2018-03-11T07:51:54.735Z,10.30
2018-03-11T07:54:22.271Z,10.30
2018-03-11T07:56:50.605Z,10.40
2018-03-11T07:59:18.182Z,10.40
2018-03-11T08:01:45.740Z,10.40
2018-03-11T08:04:13.279Z,10.50
2018-03-11T08:06:40.813Z,10.50
2018-03-11T08:09:09.143Z,10.60
2018-03-11T08:11:36.696Z,10.60
2018-03-11T08:14:04.210Z,10.60
2018-03-11T08:16:31.744Z,10.70
2018-03-11T08:18:59.286Z,10.80
2018-03-11T08:21:26.855Z,10.80
2018-03-11T08:23:54.382Z,10.80
2018-03-11T08:26:21.916Z,10.80
2018-03-11T08:28:49.474Z,10.80
2018-03-11T08:31:17.111Z,10.80
2018-03-11T08:33:44.766Z,10.80
2018-03-11T08:36:12.306Z,10.80
2018-03-11T08:38:39.911Z,10.80
2018-03-11T08:41:07.459Z,10.80
2018-03-11T08:43:35.777Z,10.80
2018-03-11T08:46:03.350Z,10.80
2018-03-11T08:48:30.900Z,10.90
2018-03-11T08:50:58.482Z,10.90
2018-03-11T08:53:26.037Z,10.90
2018-03-11T08:55:53.629Z,10.90
2018-03-11T08:58:21.462Z,10.90
2018-03-11T09:00:49.015Z,10.90
2018-03-11T09:03:16.581Z,10.90
2018-03-11T09:05:44.888Z,11.00
2018-03-11T09:08:12.433Z,11.00
2018-03-11T09:10:40.033Z,11.10
2018-03-11T09:13:07.584Z,11.10
2018-03-11T09:15:35.187Z,11.10
2018-03-11T09:18:02.726Z,11.10
2018-03-11T09:20:30.288Z,11.10
2018-03-11T09:22:57.830Z,11.10
2018-03-11T09:25:25.368Z,11.10
2018-03-11T09:27:53.675Z,11.20
2018-03-11T09:30:21.207Z,11.10
2018-03-11T09:32:48.748Z,11.10
2018-03-11T09:35:16.314Z,11.10
2018-03-11T09:37:43.876Z,11.20
2018-03-11T09:40:11.519Z,11.10
2018-03-11T09:42:39.092Z,11.10
2018-03-11T09:45:06.645Z,11.10
2018-03-11T09:47:34.207Z,11.10
2018-03-11T09:50:01.818Z,11.10
2018-03-11T09:52:29.347Z,11.10
2018-03-11T09:54:56.906Z,11.20
2018-03-11T09:57:24.548Z,11.10
2018-03-11T09:59:52.883Z,11.10
2018-03-11T10:02:20.426Z,11.10
2018-03-11T10:04:47.962Z,11.10
2018-03-11T10:07:16.288Z,11.20
2018-03-11T10:09:43.858Z,11.10
2018-03-11T10:12:11.418Z,11.20
2018-03-11T10:14:38.964Z,11.20
2018-03-11T10:17:06.634Z,11.20
2018-03-11T10:19:34.180Z,11.20
2018-03-11T10:22:02.484Z,11.30
2018-03-11T10:24:30.038Z,11.20
2018-03-11T10:26:58.363Z,11.30
2018-03-11T10:29:25.900Z,11.30
2018-03-11T10:31:53.498Z,11.30
2018-03-11T10:34:21.061Z,11.40
2018-03-11T10:36:48.592Z,11.40
2018-03-11T10:39:16.161Z,11.40
2018-03-11T10:41:43.723Z,11.40
2018-03-11T10:44:11.257Z,11.30
2018-03-11T10:46:39.607Z,11.30
2018-03-11T10:49:07.153Z,11.30
2018-03-11T10:51:34.762Z,11.30
2018-03-11T10:54:02.312Z,11.30
2018-03-11T10:56:29.860Z,11.30
2018-03-11T10:58:57.453Z,11.30
2018-03-11T11:04:24.240Z,11.40
2018-03-11T11:06:52.630Z,11.60
2018-03-11T11:09:20.958Z,11.70
2018-03-11T11:11:48.504Z,11.70
2018-03-11T11:14:16.078Z,11.80
2018-03-11T11:16:43.662Z,11.80
2018-03-11T11:19:11.206Z,11.90
2018-03-11T11:21:38.796Z,11.90
2018-03-11T11:24:06.348Z,11.90
2018-03-11T11:26:34.692Z,12.00
2018-03-11T11:29:02.263Z,11.90
2018-03-11T11:31:29.806Z,11.80
2018-03-11T11:33:58.124Z,11.70
2018-03-11T11:36:25.717Z,11.70
2018-03-11T11:38:53.289Z,11.60
2018-03-11T11:41:20.845Z,11.70
2018-03-11T11:43:49.147Z,11.80
2018-03-11T11:46:16.812Z,11.80
2018-03-11T11:48:44.423Z,11.90
2018-03-11T11:51:11.910Z,12.10
2018-03-11T11:53:39.866Z,12.30
2018-03-11T11:56:07.456Z,12.50
2018-03-11T11:58:35.110Z,12.90
2018-03-11T12:01:02.655Z,13.10
2018-03-11T12:03:30.236Z,13.50
2018-03-11T12:05:57.893Z,13.80
2018-03-11T12:08:25.633Z,14.00
2018-03-11T12:10:53.467Z,14.30
2018-03-11T12:13:22.103Z,14.40
2018-03-11T12:15:50.440Z,14.20
2018-03-11T12:18:18.113Z,14.10
2018-03-11T12:20:45.664Z,14.00
2018-03-11T12:23:13.223Z,14.00
2018-03-11T12:25:40.766Z,13.90
2018-03-11T12:28:08.368Z,13.90
2018-03-11T12:30:36.335Z,13.90
2018-03-11T12:33:03.878Z,13.80
2018-03-11T12:35:31.425Z,13.90
2018-03-11T12:37:59.737Z,13.90
2018-03-11T12:40:27.280Z,13.90
2018-03-11T12:42:55.628Z,14.00
2018-03-11T12:45:23.215Z,14.00
2018-03-11T12:47:50.724Z,13.90
2018-03-11T12:50:18.260Z,14.00
2018-03-11T12:52:46.585Z,14.20
2018-03-11T12:55:14.164Z,14.20
2018-03-11T12:57:41.718Z,14.20
2018-03-11T13:00:09.273Z,14.10
2018-03-11T13:02:36.864Z,14.20
2018-03-11T13:05:04.436Z,14.20
2018-03-11T13:07:32.012Z,14.30
2018-03-11T13:09:59.564Z,14.20
2018-03-11T13:12:27.878Z,14.40
2018-03-11T13:14:56.183Z,14.30
2018-03-11T13:17:23.729Z,14.40
2018-03-11T13:20:12.840Z,14.20
2018-03-11T13:22:40.385Z,14.10
2018-03-11T13:25:07.936Z,14.20
2018-03-11T13:27:36.367Z,14.10
2018-03-11T13:30:04.093Z,14.10
2018-03-11T13:32:43.824Z,14.00
2018-03-11T13:35:11.398Z,14.00
2018-03-11T13:37:38.946Z,13.80
2018-03-11T13:40:19.351Z,13.80
2018-03-11T13:42:47.057Z,13.80
2018-03-11T13:45:26.582Z,13.70
2018-03-11T13:47:54.460Z,13.70
2018-03-11T13:50:22.056Z,13.70
2018-03-11T13:53:02.259Z,13.60
2018-03-11T13:55:29.845Z,13.60
2018-03-11T13:58:09.259Z,13.70
2018-03-11T14:00:36.791Z,13.50
2018-03-11T14:03:04.409Z,13.30
2018-03-11T14:05:31.943Z,13.20
2018-03-11T14:07:59.627Z,13.10
2018-03-11T14:10:28.055Z,13.20
2018-03-11T14:12:56.423Z,13.30
2018-03-11T14:15:24.881Z,13.20
2018-03-11T14:17:52.565Z,13.20
2018-03-11T14:20:20.094Z,13.30
2018-03-11T14:22:47.665Z,13.20
2018-03-11T14:25:15.236Z,13.20
2018-03-11T14:27:42.817Z,13.30
2018-03-11T14:30:10.388Z,13.20
2018-03-11T14:32:37.958Z,13.20
2018-03-11T14:35:05.562Z,13.10
2018-03-11T14:37:33.915Z,13.10
2018-03-11T14:40:01.506Z,13.00
2018-03-11T14:42:29.832Z,12.90
2018-03-11T14:44:57.511Z,12.90
2018-03-11T14:47:25.941Z,12.80
2018-03-11T14:49:54.297Z,12.70
2018-03-11T14:52:21.859Z,12.70
2018-03-11T14:54:49.486Z,12.70
2018-03-11T14:57:17.089Z,12.60
2018-03-11T14:59:44.850Z,12.60
2018-03-11T15:02:13.195Z,12.40
2018-03-11T15:04:40.774Z,12.50
2018-03-11T15:07:08.383Z,12.50
2018-03-11T15:09:35.912Z,12.50
2018-03-11T15:12:03.453Z,12.50
2018-03-11T15:14:31.011Z,12.40
2018-03-11T15:16:59.344Z,12.50
2018-03-11T15:19:26.891Z,12.40
2018-03-11T15:21:54.488Z,12.40
2018-03-11T15:24:22.050Z,12.40
2018-03-11T15:26:50.392Z,12.30
2018-03-11T15:29:17.975Z,12.30
2018-03-11T15:31:45.533Z,12.30
2018-03-11T15:34:13.115Z,12.40
2018-03-11T15:36:40.677Z,12.30
2018-03-11T15:39:08.212Z,12.20
2018-03-11T15:41:35.818Z,12.20
2018-03-11T15:44:03.361Z,12.20
2018-03-11T15:46:30.929Z,12.30
2018-03-11T15:48:58.465Z,12.20
2018-03-11T15:51:26.830Z,12.30
2018-03-11T15:53:54.382Z,12.20
2018-03-11T15:56:21.934Z,12.20
2018-03-11T15:58:49.516Z,12.20
2018-03-11T16:01:17.106Z,12.20
2018-03-11T16:03:45.404Z,12.10
2018-03-11T16:06:12.982Z,12.10
2018-03-11T16:08:40.540Z,12.10
2018-03-11T16:11:08.093Z,12.10
2018-03-11T16:13:36.413Z,12.00
2018-03-11T16:16:03.947Z,12.00
2018-03-11T16:18:31.528Z,12.00
2018-03-11T16:20:59.063Z,12.00
2018-03-11T16:23:27.409Z,11.90
2018-03-11T16:25:54.955Z,11.90
2018-03-11T16:28:22.511Z,11.80
2018-03-11T16:30:50.371Z,11.80
2018-03-11T16:33:17.932Z,11.80
2018-03-11T16:35:45.460Z,11.80
2018-03-11T16:38:13.177Z,11.70
2018-03-11T16:40:40.789Z,11.70
2018-03-11T16:43:08.350Z,11.70
2018-03-11T16:45:35.920Z,11.60
2018-03-11T16:48:03.512Z,11.60
2018-03-11T16:50:31.851Z,11.50
2018-03-11T16:52:59.405Z,11.50
2018-03-11T16:55:27.033Z,11.50
2018-03-11T16:57:55.382Z,11.40
2018-03-11T17:00:22.942Z,11.40
2018-03-11T17:02:50.497Z,11.40
2018-03-11T17:05:18.057Z,11.30
2018-03-11T17:07:45.678Z,11.20
2018-03-11T17:10:14.016Z,11.10
2018-03-11T17:12:41.564Z,11.10
2018-03-11T17:15:09.137Z,11.20
2018-03-11T17:17:36.902Z,11.10
2018-03-11T17:20:04.493Z,11.00
2018-03-11T17:22:32.075Z,11.00
2018-03-11T17:24:59.599Z,11.00
2018-03-11T17:27:27.152Z,10.90
2018-03-11T17:29:54.720Z,10.90
2018-03-11T17:32:22.304Z,10.90
2018-03-11T17:34:49.863Z,10.90
2018-03-11T17:37:17.506Z,10.80
2018-03-11T17:39:45.131Z,10.80
2018-03-11T17:42:12.695Z,10.70
2018-03-11T17:44:40.274Z,10.70
2018-03-11T17:47:07.859Z,10.70
2018-03-11T17:49:36.220Z,10.60
2018-03-11T17:52:03.786Z,10.60
2018-03-11T17:54:32.147Z,10.50
2018-03-11T17:56:59.735Z,10.50
2018-03-11T17:59:27.308Z,10.40
2018-03-11T18:01:55.726Z,10.40
2018-03-11T18:04:23.275Z,10.40
2018-03-11T18:06:50.882Z,10.40
2018-03-11T18:09:19.237Z,10.30
2018-03-11T18:11:46.774Z,10.30
2018-03-11T18:14:15.103Z,10.30
2018-03-11T18:16:42.706Z,10.30
2018-03-11T18:19:10.243Z,10.30
2018-03-11T18:21:37.815Z,10.30
2018-03-11T18:24:05.390Z,10.20
2018-03-11T18:26:32.967Z,10.20
2018-03-11T18:29:00.540Z,10.20
2018-03-11T18:31:28.179Z,10.20
2018-03-11T18:33:55.864Z,10.20
2018-03-11T18:36:23.449Z,10.20
2018-03-11T18:38:51.816Z,10.10
2018-03-11T18:41:19.440Z,10.10
2018-03-11T18:43:47.027Z,10.10
2018-03-11T18:46:14.664Z,10.10
2018-03-11T18:48:42.297Z,10.10
2018-03-11T18:51:09.853Z,10.10
2018-03-11T18:53:37.484Z,10.10
2018-03-11T18:56:05.071Z,10.10
2018-03-11T18:58:32.672Z,10.10
2018-03-11T19:01:00.251Z,10.10
2018-03-11T19:03:28.572Z,10.00
2018-03-11T19:05:56.139Z,10.10
2018-03-11T19:08:23.733Z,10.10
2018-03-11T19:10:51.338Z,10.00
2018-03-11T19:13:18.950Z,10.00
2018-03-11T19:15:46.600Z,9.90
2018-03-11T19:18:14.159Z,9.90
2018-03-11T19:20:41.725Z,9.80
2018-03-11T19:23:09.320Z,9.80
2018-03-11T19:25:36.910Z,9.80
2018-03-11T19:28:05.265Z,9.80
2018-03-11T19:30:32.819Z,9.80
2018-03-11T19:33:01.174Z,9.80
2018-03-11T19:35:28.880Z,9.80
2018-03-11T19:37:56.596Z,9.90
2018-03-11T19:40:24.253Z,9.80
2018-03-11T19:42:52.735Z,9.80
2018-03-11T19:45:20.402Z,9.80
2018-03-11T19:47:48.191Z,9.80
2018-03-11T19:50:16.834Z,9.80
2018-03-11T19:52:44.520Z,9.80
2018-03-11T19:55:12.198Z,9.70
2018-03-11T19:57:39.858Z,9.70
2018-03-11T20:00:07.592Z,9.80
2018-03-11T20:02:35.191Z,9.80
2018-03-11T20:05:02.825Z,9.80
2018-03-11T20:07:30.575Z,9.90
2018-03-11T20:09:58.232Z,9.90
2018-03-11T20:12:25.959Z,9.90
2018-03-11T20:14:53.674Z,9.80
2018-03-11T20:17:21.546Z,9.80
2018-03-11T20:19:49.412Z,9.90
2018-03-11T20:22:17.929Z,9.90
2018-03-11T20:24:46.801Z,9.80
2018-03-11T20:27:14.544Z,9.80
2018-03-11T20:29:42.214Z,9.80
2018-03-11T20:32:09.797Z,9.80
2018-03-11T20:34:38.286Z,9.70
2018-03-11T20:37:06.706Z,9.70
2018-03-11T20:39:34.312Z,9.70
2018-03-11T20:42:01.863Z,9.70
2018-03-11T20:44:29.421Z,9.60
2018-03-11T20:46:57.015Z,9.60
2018-03-11T20:49:24.662Z,9.60
2018-03-11T20:51:52.232Z,9.60
2018-03-11T20:54:19.822Z,9.60
2018-03-11T20:56:48.206Z,9.60
2018-03-11T20:59:15.774Z,9.60
2018-03-11T21:01:44.131Z,9.60
2018-03-11T21:04:12.498Z,9.60
2018-03-11T21:06:40.054Z,9.60
2018-03-11T21:09:07.637Z,9.60
2018-03-11T21:11:35.206Z,9.60
2018-03-11T21:14:02.794Z,9.60
2018-03-11T21:16:31.124Z,9.60
2018-03-11T21:18:58.691Z,9.50
2018-03-11T21:21:26.231Z,9.60
2018-03-11T21:23:53.792Z,9.60
2018-03-11T21:26:22.143Z,9.60
2018-03-11T21:28:49.692Z,9.60
2018-03-11T21:31:17.241Z,9.60
2018-03-11T21:33:44.787Z,9.60
2018-03-11T21:36:12.334Z,9.60
2018-03-11T21:38:40.665Z,9.60
2018-03-11T21:41:08.244Z,9.50
2018-03-11T21:43:36.025Z,9.60
2018-03-11T21:46:03.568Z,9.60
2018-03-11T21:48:31.128Z,9.60
2018-03-11T21:50:58.714Z,9.60
2018-03-11T21:53:26.264Z,9.60
2018-03-11T21:55:54.026Z,9.60
2018-03-11T21:58:21.575Z,9.60
2018-03-11T22:00:49.126Z,9.50
2018-03-11T22:03:16.840Z,9.60
2018-03-11T22:05:44.387Z,9.50
2018-03-11T22:08:11.938Z,9.50
2018-03-11T22:10:39.507Z,9.50
2018-03-11T22:13:07.082Z,9.60
2018-03-11T22:15:34.654Z,9.60
2018-03-11T22:18:02.214Z,9.50
2018-03-11T22:20:29.745Z,9.50
2018-03-11T22:22:58.054Z,9.40
2018-03-11T22:25:25.622Z,9.40
2018-03-11T22:27:53.237Z,9.30
2018-03-11T22:30:20.759Z,9.20
2018-03-11T22:32:48.368Z,9.20
2018-03-11T22:35:15.996Z,9.10
2018-03-11T22:37:43.539Z,9.00
2018-03-11T22:40:11.087Z,9.00
2018-03-11T22:42:39.397Z,9.00
2018-03-11T22:45:06.963Z,8.90
2018-03-11T22:47:35.248Z,8.90
2018-03-11T22:50:02.785Z,8.90
2018-03-11T22:52:31.141Z,8.80
2018-03-11T22:54:58.724Z,8.80
2018-03-11T22:57:26.254Z,8.70
2018-03-11T22:59:53.798Z,8.70
2018-03-11T23:02:21.338Z,8.70
2018-03-11T23:04:48.916Z,8.70
2018-03-11T23:07:16.457Z,8.70
2018-03-11T23:09:44.759Z,8.80
2018-03-11T23:12:12.318Z,8.80
2018-03-11T23:14:39.857Z,8.80
2018-03-11T23:17:07.421Z,8.90
2018-03-11T23:19:34.947Z,8.90
2018-03-11T23:22:02.503Z,8.90
2018-03-11T23:24:30.162Z,8.90
2018-03-11T23:26:57.689Z,9.00
2018-03-11T23:29:26.041Z,9.00
2018-03-11T23:31:53.600Z,9.00
2018-03-11T23:34:21.212Z,9.00
2018-03-11T23:36:49.523Z,9.10
2018-03-11T23:39:17.070Z,9.00
2018-03-11T23:41:45.407Z,9.10
2018-03-11T23:44:12.937Z,9.10
2018-03-11T23:46:40.488Z,9.10
2018-03-11T23:49:08.810Z,9.20
2018-03-11T23:51:36.346Z,9.10
2018-03-11T23:54:03.867Z,9.20
2018-03-11T23:56:31.444Z,9.20
2018-03-11T23:58:59.789Z,9.10
